バマコ の空港の天気 - METARとTAF

バマコ・セヌー国際空港 ( GABS / BKO ) - マリ バマコ
飛行場実況気象(Metar)
観測時間07/22 18:00 GMT (07/22 18:00 UTC)
風向・風速南西 3m/s
視程10km以上
天気現象
全天の4割程度の雲 雲底高度 610m
少しの雲 雲底高度 910m
気温31℃
湿度59%
気圧1012hPa
METARGABS 221800Z 22006KT 9999 SCT020 FEW030CB 31/22 Q1012 NOSIG
過去の天気等 Google飛行場航空写真 Wunderground天気予報

過去48時間のMETAR

飛行場予報(TAF)
発表時間: 7/22 17:08 GMT (7/22 17:08 UTC)
予報対象時間: 22日18時 GMT ~ 24日0時 GMT
風向・風速南西 4m/s
視程10km以上
全天の4割程度の雲 雲底高度 610m
22日21時 GMT ~ 22日23時 GMT に徐々に
風向・風速東 8m/s 瞬間風速 18m/s
視程3000m
天気現象雷雨
全天の8割程度の雲 雲底高度 430m
全天の4割程度の積乱雲 雲底高度 910m
23日4時 GMT ~ 23日6時 GMT に徐々に
風向・風速南南西 5m/s
視程10km以上
天気現象運行に影響にある天気現象が終了
全天の4割程度の雲 雲底高度 610m
23日9時 GMT ~ 23日15時 GMT に 確率 40% で一時的に
風向・風速不定 8m/s 瞬間風速 18m/s
視程4000m
天気現象雷雨
全天の8割程度の雲 雲底高度 430m
少しの積乱雲 雲底高度 910m
23日16時 GMT ~ 23日18時 GMT に徐々に
風向・風速東 12m/s 瞬間風速 23m/s
視程2000m
天気現象雷雨
全天の8割程度の雲 雲底高度 430m
全天の4割程度の積乱雲 雲底高度 910m
TAF GABS 221708Z 2218/2324 22007KT 9999 SCT020
BECMG 2221/2223 08015G35KT 3000 TSRA BKN014 SCT030CB
BECMG 2304/2306 20010KT 9999 NSW SCT020
PROB40 TEMPO 2309/2315 VRB15G35KT 4000 TSRA BKN014 FEW030CB
BECMG 2316/2318 08024G45KT 2000 TSRA BKN014 SCT030CB